createdAt,value
2022-11-18T00:01:29.015Z,496.60
2022-11-18T00:03:55.478Z,501.37
2022-11-18T00:06:21.881Z,498.40
2022-11-18T00:08:48.289Z,481.63
2022-11-18T00:11:14.888Z,495.00
2022-11-18T00:13:41.311Z,499.80
2022-11-18T00:16:07.717Z,500.80
2022-11-18T00:18:34.146Z,492.47
2022-11-18T00:21:00.542Z,501.20
2022-11-18T00:23:26.941Z,497.20
2022-11-18T00:25:53.343Z,504.93
2022-11-18T00:28:19.760Z,516.70
2022-11-18T00:30:46.155Z,511.53
2022-11-18T00:33:12.578Z,500.37
2022-11-18T00:35:39.118Z,503.63
2022-11-18T00:38:05.533Z,512.70
2022-11-18T00:40:31.931Z,498.50
2022-11-18T00:42:58.322Z,484.70
2022-11-18T00:45:24.739Z,496.30
2022-11-18T00:47:51.125Z,510.93
2022-11-18T00:50:17.530Z,506.60
2022-11-18T00:52:43.924Z,503.27
2022-11-18T00:55:10.327Z,502.63
2022-11-18T00:57:36.724Z,500.33
2022-11-18T01:00:03.108Z,499.53
2022-11-18T01:02:29.500Z,507.50
2022-11-18T01:04:55.964Z,496.40
2022-11-18T01:07:22.444Z,495.70
2022-11-18T01:09:48.868Z,495.17
2022-11-18T01:12:15.364Z,492.93
2022-11-18T01:14:41.759Z,489.40
2022-11-18T01:17:08.163Z,499.60
2022-11-18T01:19:34.569Z,500.23
2022-11-18T01:22:00.950Z,485.20
2022-11-18T01:24:27.371Z,493.37
2022-11-18T01:26:53.763Z,498.57
2022-11-18T01:29:20.347Z,506.27
2022-11-18T01:32:16.881Z,490.10
2022-11-18T01:34:33.405Z,482.13
2022-11-18T01:36:59.838Z,487.30
2022-11-18T01:39:26.224Z,493.87
2022-11-18T01:41:52.816Z,493.40
2022-11-18T01:44:19.213Z,490.23
2022-11-18T01:46:45.630Z,494.70
2022-11-18T01:49:12.024Z,500.47
2022-11-18T01:51:38.440Z,505.00
2022-11-18T01:54:04.833Z,482.00
2022-11-18T01:56:31.234Z,485.90
2022-11-18T01:58:57.613Z,500.83
2022-11-18T02:01:24.140Z,502.10
2022-11-18T02:03:50.556Z,507.40
2022-11-18T02:06:16.973Z,501.23
2022-11-18T02:08:43.368Z,491.47
2022-11-18T02:11:09.778Z,493.63
2022-11-18T02:13:36.384Z,498.50
2022-11-18T02:16:02.805Z,499.80
2022-11-18T02:18:29.201Z,505.03
2022-11-18T02:20:55.625Z,506.80
2022-11-18T02:23:22.016Z,509.13
2022-11-18T02:25:48.405Z,515.33
2022-11-18T02:28:14.795Z,508.30
2022-11-18T02:30:41.209Z,499.63
2022-11-18T02:33:07.610Z,510.57
2022-11-18T02:35:33.999Z,510.73
2022-11-18T02:38:00.587Z,505.00
2022-11-18T02:40:26.992Z,472.10
2022-11-18T02:42:53.592Z,495.10
2022-11-18T02:45:19.980Z,496.93
2022-11-18T02:47:46.395Z,494.70
2022-11-18T02:50:12.886Z,511.80
2022-11-18T02:52:39.283Z,497.23
2022-11-18T02:55:05.704Z,509.03
2022-11-18T02:57:32.109Z,486.67
2022-11-18T02:59:58.488Z,495.67
2022-11-18T03:02:27.272Z,497.80
2022-11-18T03:04:53.667Z,502.43
2022-11-18T03:07:20.122Z,497.43
2022-11-18T03:09:46.668Z,506.90
2022-11-18T03:12:13.078Z,489.43
2022-11-18T03:14:39.471Z,499.73
2022-11-18T03:17:05.870Z,506.33
2022-11-18T03:19:32.249Z,495.00
2022-11-18T03:21:58.665Z,486.80
2022-11-18T03:24:25.050Z,492.40
2022-11-18T03:26:51.459Z,488.50
2022-11-18T03:29:18.104Z,482.13
2022-11-18T03:31:44.657Z,485.20
2022-11-18T03:34:11.058Z,483.90
2022-11-18T03:36:37.483Z,500.67
2022-11-18T03:39:03.892Z,475.87
2022-11-18T03:41:30.306Z,478.70
2022-11-18T03:43:56.725Z,479.80
2022-11-18T03:46:23.144Z,487.80
2022-11-18T03:48:49.637Z,484.43
2022-11-18T03:51:18.392Z,484.87
2022-11-18T03:53:44.789Z,484.97
2022-11-18T03:56:17.003Z,471.57
2022-11-18T03:58:43.914Z,478.07
2022-11-18T04:01:10.316Z,472.70
2022-11-18T04:03:36.722Z,467.33
2022-11-18T04:06:03.117Z,474.80
2022-11-18T04:08:29.536Z,477.10
2022-11-18T04:10:56.081Z,476.20
2022-11-18T04:13:22.486Z,485.97
2022-11-18T04:15:48.888Z,481.97
2022-11-18T04:18:15.325Z,473.53
2022-11-18T04:20:41.728Z,482.90
2022-11-18T04:23:08.166Z,476.97
2022-11-18T04:25:34.545Z,473.20
2022-11-18T04:28:00.946Z,482.57
2022-11-18T04:30:27.441Z,478.33
2022-11-18T04:32:53.934Z,479.80
2022-11-18T04:35:20.341Z,476.57
2022-11-18T04:37:46.722Z,477.37
2022-11-18T04:40:13.104Z,465.90
2022-11-18T04:42:39.512Z,470.43
2022-11-18T04:45:05.938Z,475.37
2022-11-18T04:47:32.368Z,488.63
2022-11-18T04:49:58.766Z,480.40
2022-11-18T04:52:25.165Z,486.13
2022-11-18T04:54:51.601Z,469.70
2022-11-18T04:57:18.054Z,455.63
2022-11-18T04:59:44.451Z,450.30
2022-11-18T05:02:10.850Z,461.00
2022-11-18T05:04:37.236Z,460.67
2022-11-18T05:07:03.677Z,439.70
2022-11-18T05:09:32.127Z,451.33
2022-11-18T05:11:58.914Z,450.57
2022-11-18T05:14:25.339Z,440.23
2022-11-18T05:16:51.744Z,443.47
2022-11-18T05:19:18.286Z,426.83
2022-11-18T05:21:44.874Z,451.63
2022-11-18T05:24:11.307Z,447.40
2022-11-18T05:26:37.735Z,436.33
2022-11-18T05:29:04.126Z,441.00
2022-11-18T05:31:30.519Z,424.00
2022-11-18T05:33:56.916Z,435.80
2022-11-18T05:36:23.317Z,433.60
2022-11-18T05:38:49.738Z,430.53
2022-11-18T05:41:16.145Z,427.90
2022-11-18T05:43:42.538Z,426.83
2022-11-18T05:46:08.955Z,423.57
2022-11-18T05:48:35.569Z,433.53
2022-11-18T05:51:01.977Z,414.73
2022-11-18T05:53:28.471Z,423.20
2022-11-18T05:55:54.867Z,421.57
2022-11-18T05:58:21.260Z,404.73
2022-11-18T06:00:47.668Z,411.03
2022-11-18T06:03:14.325Z,417.50
2022-11-18T06:05:40.803Z,421.73
2022-11-18T06:08:07.189Z,402.93
2022-11-18T06:10:33.629Z,418.93
2022-11-18T06:13:00.022Z,403.07
2022-11-18T06:15:26.428Z,409.53
2022-11-18T06:17:52.814Z,409.80
2022-11-18T06:20:19.219Z,403.07
2022-11-18T06:22:46.816Z,412.90
2022-11-18T06:25:13.315Z,407.43
2022-11-18T06:27:39.713Z,396.40
2022-11-18T06:30:06.157Z,404.17
2022-11-18T06:32:32.544Z,404.57
2022-11-18T06:34:58.962Z,406.33
2022-11-18T06:37:25.463Z,409.87
2022-11-18T06:39:51.875Z,390.80
2022-11-18T06:42:18.264Z,400.20
2022-11-18T06:44:44.732Z,402.63
2022-11-18T06:47:11.174Z,402.13
2022-11-18T06:49:37.573Z,403.80
2022-11-18T06:52:03.972Z,395.33
2022-11-18T06:54:30.432Z,396.80
2022-11-18T06:56:56.829Z,388.40
2022-11-18T06:59:23.215Z,394.17
2022-11-18T07:01:49.627Z,385.27
2022-11-18T07:04:16.173Z,394.10
2022-11-18T07:06:42.573Z,393.17
2022-11-18T07:09:09.050Z,393.20
2022-11-18T07:11:35.483Z,395.23
2022-11-18T07:14:01.984Z,390.63
2022-11-18T07:16:28.392Z,380.70
2022-11-18T07:18:54.774Z,380.93
2022-11-18T07:21:21.176Z,381.83
2022-11-18T07:23:47.649Z,392.50
2022-11-18T07:26:14.047Z,376.10
2022-11-18T07:28:40.448Z,388.87
2022-11-18T07:31:06.851Z,384.87
2022-11-18T07:33:33.245Z,374.93
2022-11-18T07:35:59.822Z,385.17
2022-11-18T07:38:26.223Z,382.03
2022-11-18T07:40:52.804Z,391.10
2022-11-18T07:43:19.197Z,387.70
2022-11-18T07:45:45.601Z,380.03
2022-11-18T07:48:12.001Z,390.17
2022-11-18T07:50:41.943Z,379.73
2022-11-18T07:53:10.776Z,378.13
2022-11-18T07:55:37.179Z,385.40
2022-11-18T07:58:03.573Z,395.17
2022-11-18T08:00:29.981Z,379.13
2022-11-18T08:02:56.371Z,380.97
2022-11-18T08:05:23.117Z,381.33
2022-11-18T08:07:49.689Z,398.83
2022-11-18T08:10:16.105Z,403.57
2022-11-18T08:12:42.537Z,391.40
2022-11-18T08:15:08.927Z,382.17
2022-11-18T08:17:35.315Z,383.87
2022-11-18T08:20:01.689Z,384.80
2022-11-18T08:22:28.093Z,369.80
2022-11-18T08:24:54.497Z,397.83
2022-11-18T08:27:20.899Z,379.00
2022-11-18T08:29:47.314Z,380.27
2022-11-18T08:32:13.712Z,393.90
2022-11-18T08:34:40.117Z,397.43
2022-11-18T08:37:06.529Z,383.53
2022-11-18T08:39:32.932Z,389.07
2022-11-18T08:41:59.324Z,403.00
2022-11-18T08:44:25.727Z,395.60
2022-11-18T08:46:52.128Z,387.77
2022-11-18T08:49:18.673Z,393.17
2022-11-18T08:51:45.205Z,388.00
2022-11-18T08:54:11.593Z,399.23
2022-11-18T08:56:38.120Z,398.50
2022-11-18T08:59:04.529Z,397.37
2022-11-18T09:01:30.952Z,410.47
2022-11-18T09:03:57.430Z,406.20
2022-11-18T09:06:23.946Z,390.73
2022-11-18T09:08:50.338Z,393.03
2022-11-18T09:11:16.840Z,395.60
2022-11-18T09:14:14.307Z,386.13
2022-11-18T09:16:29.620Z,393.40
2022-11-18T09:18:56.030Z,387.60
2022-11-18T09:21:22.447Z,393.60
2022-11-18T09:23:48.871Z,381.27
2022-11-18T09:26:15.294Z,382.33
2022-11-18T09:28:41.697Z,391.27
2022-11-18T09:31:08.131Z,386.43
2022-11-18T09:33:34.573Z,388.23
2022-11-18T09:36:01.044Z,389.93
2022-11-18T09:38:27.439Z,398.40
2022-11-18T09:40:53.900Z,392.13
2022-11-18T09:43:20.300Z,391.13
2022-11-18T09:45:46.701Z,395.07
2022-11-18T09:48:13.118Z,390.73
2022-11-18T09:50:49.795Z,407.80
2022-11-18T09:53:16.957Z,400.60
2022-11-18T09:55:43.377Z,407.80
2022-11-18T09:58:09.779Z,396.90
2022-11-18T10:00:36.186Z,399.43
2022-11-18T10:03:02.588Z,410.80
2022-11-18T10:05:29.018Z,392.63
2022-11-18T10:07:55.430Z,420.63
2022-11-18T10:10:21.821Z,407.47
2022-11-18T10:12:48.205Z,415.60
2022-11-18T10:15:14.613Z,412.83
2022-11-18T10:17:41.025Z,415.17
2022-11-18T10:20:07.497Z,414.10
2022-11-18T10:22:33.909Z,404.70
2022-11-18T10:25:00.302Z,421.60
2022-11-18T10:27:26.692Z,415.97
2022-11-18T10:29:53.288Z,423.63
2022-11-18T10:32:19.712Z,418.23
2022-11-18T10:34:46.098Z,426.23
2022-11-18T10:37:12.492Z,434.70
2022-11-18T10:39:38.962Z,439.70
2022-11-18T10:42:05.358Z,587.57
2022-11-18T10:44:31.760Z,439.57
2022-11-18T10:46:58.175Z,436.00
2022-11-18T10:49:24.580Z,446.90
2022-11-18T10:51:50.983Z,426.33
2022-11-18T10:54:17.646Z,423.00
2022-11-18T10:56:44.231Z,424.77
2022-11-18T10:59:10.640Z,433.73
2022-11-18T11:01:37.127Z,451.80
2022-11-18T11:04:03.568Z,453.00
2022-11-18T11:06:30.019Z,444.93
2022-11-18T11:08:56.425Z,417.57
2022-11-18T11:11:22.823Z,406.53
2022-11-18T11:13:49.221Z,402.30
2022-11-18T11:16:15.638Z,424.83
2022-11-18T11:18:42.116Z,426.20
2022-11-18T11:21:08.536Z,423.63
2022-11-18T11:23:34.994Z,433.67
2022-11-18T11:28:49.242Z,408.40
2022-11-18T11:31:15.661Z,412.13
2022-11-18T11:33:42.069Z,440.30
2022-11-18T11:36:08.481Z,714.93
2022-11-18T11:38:34.890Z,680.23
2022-11-18T11:41:01.293Z,667.87
2022-11-18T11:43:27.757Z,724.77
2022-11-18T11:45:54.160Z,684.97
2022-11-18T11:48:20.604Z,729.43
2022-11-18T11:50:54.755Z,385.20
2022-11-18T11:53:23.735Z,373.57
2022-11-18T11:55:50.140Z,363.80
2022-11-18T11:58:16.539Z,367.63
2022-11-18T12:00:42.922Z,373.27
2022-11-18T12:03:09.354Z,391.47
2022-11-18T12:05:35.754Z,381.10
2022-11-18T12:08:02.170Z,385.90
2022-11-18T12:10:28.700Z,387.67
2022-11-18T12:12:55.100Z,390.77
2022-11-18T12:15:21.496Z,364.90
2022-11-18T12:17:47.897Z,364.80
2022-11-18T12:20:14.306Z,351.60
2022-11-18T12:22:40.694Z,362.47
2022-11-18T12:25:07.096Z,373.73
2022-11-18T12:27:33.493Z,385.73
2022-11-18T12:29:59.899Z,355.70
2022-11-18T12:32:26.330Z,381.37
2022-11-18T12:34:52.773Z,370.00
2022-11-18T12:37:19.210Z,380.73
2022-11-18T12:39:45.602Z,362.53
2022-11-18T12:42:12.064Z,375.63
2022-11-18T12:44:38.488Z,362.07
2022-11-18T12:47:04.902Z,354.80
2022-11-18T12:49:31.315Z,345.90
2022-11-18T12:51:57.715Z,350.43
2022-11-18T12:54:24.126Z,346.20
2022-11-18T12:56:50.525Z,329.93
2022-11-18T12:59:17.194Z,361.87
2022-11-18T13:01:43.896Z,347.10
2022-11-18T13:04:10.288Z,350.57
2022-11-18T13:06:36.693Z,333.37
2022-11-18T13:09:03.083Z,349.17
2022-11-18T13:11:29.526Z,338.00
2022-11-18T13:13:56.035Z,336.93
2022-11-18T13:16:22.640Z,420.73
2022-11-18T13:18:49.075Z,377.53
2022-11-18T13:21:15.470Z,343.10
2022-11-18T13:23:41.863Z,342.03
2022-11-18T13:26:08.255Z,383.60
2022-11-18T13:28:34.661Z,381.90
2022-11-18T13:31:01.284Z,387.30
2022-11-18T13:33:27.877Z,407.40
2022-11-18T13:35:54.342Z,399.90
2022-11-18T13:38:26.151Z,412.77
2022-11-18T13:40:54.302Z,376.87
2022-11-18T13:43:20.701Z,378.03
2022-11-18T13:45:47.095Z,390.23
2022-11-18T13:48:13.507Z,391.97
2022-11-18T13:50:39.906Z,388.67
2022-11-18T13:53:06.351Z,397.30
2022-11-18T13:55:32.951Z,384.57
2022-11-18T13:57:59.384Z,404.70
2022-11-18T14:00:25.865Z,417.20
2022-11-18T14:02:52.302Z,441.00
2022-11-18T14:05:21.442Z,423.53
2022-11-18T14:07:48.352Z,426.53
2022-11-18T14:10:14.807Z,443.13
2022-11-18T14:12:41.354Z,416.97
2022-11-18T14:15:07.752Z,475.90
2022-11-18T14:17:34.165Z,521.73
2022-11-18T14:20:00.569Z,551.10
2022-11-18T14:22:26.972Z,536.63
2022-11-18T14:24:53.377Z,576.23
2022-11-18T14:27:19.780Z,582.57
2022-11-18T14:29:46.171Z,552.00
2022-11-18T14:32:12.577Z,548.00
2022-11-18T14:34:39.013Z,528.80
2022-11-18T14:37:05.410Z,334.63
2022-11-18T14:39:32.193Z,346.77
2022-11-18T14:41:58.684Z,339.97
2022-11-18T14:44:25.097Z,351.27
2022-11-18T14:46:51.504Z,354.63
2022-11-18T14:49:18.252Z,492.07
2022-11-18T14:51:45.233Z,324.77
2022-11-18T14:54:11.652Z,340.33
2022-11-18T14:56:38.246Z,337.33
2022-11-18T14:59:04.641Z,351.57
2022-11-18T15:01:31.360Z,338.23
2022-11-18T15:03:57.839Z,346.70
2022-11-18T15:06:24.221Z,354.50
2022-11-18T15:08:50.624Z,354.47
2022-11-18T15:11:17.005Z,373.63
2022-11-18T15:13:43.406Z,379.83
2022-11-18T15:16:09.795Z,422.90
2022-11-18T15:18:36.370Z,343.27
2022-11-18T15:21:02.959Z,352.27
2022-11-18T15:23:29.997Z,335.83
2022-11-18T15:25:56.463Z,359.77
2022-11-18T15:28:22.913Z,371.97
2022-11-18T15:30:49.509Z,380.07
2022-11-18T15:33:15.917Z,383.13
2022-11-18T15:35:42.350Z,496.90
2022-11-18T15:38:08.754Z,475.23
2022-11-18T15:40:35.138Z,362.70
2022-11-18T15:43:01.546Z,353.43
2022-11-18T15:45:27.941Z,384.53
2022-11-18T15:47:54.350Z,453.67
2022-11-18T15:50:20.748Z,372.43
2022-11-18T15:52:47.137Z,361.33
2022-11-18T15:55:13.553Z,390.20
2022-11-18T15:57:40.161Z,408.70
2022-11-18T16:00:06.569Z,509.50
2022-11-18T16:02:33.001Z,498.80
2022-11-18T16:04:59.388Z,388.10
2022-11-18T16:07:25.836Z,405.53
2022-11-18T16:09:52.417Z,413.87
2022-11-18T16:12:18.801Z,423.43
2022-11-18T16:14:45.204Z,441.60
2022-11-18T16:17:11.636Z,508.43
2022-11-18T16:19:38.033Z,436.40
2022-11-18T16:22:04.529Z,463.50
2022-11-18T16:24:30.923Z,371.97
2022-11-18T16:26:57.333Z,379.03
2022-11-18T16:32:10.120Z,396.60
2022-11-18T16:34:36.526Z,406.37
2022-11-18T16:37:02.914Z,423.93
2022-11-18T16:39:29.305Z,456.10
2022-11-18T16:40:28.282Z,388.63
2022-11-18T16:41:55.764Z,532.37
2022-11-18T16:44:22.339Z,505.73
2022-11-18T16:46:48.769Z,520.93
2022-11-18T16:49:15.215Z,372.73
2022-11-18T16:51:41.632Z,385.73
2022-11-18T16:54:08.090Z,388.30
2022-11-18T16:56:34.521Z,397.10
2022-11-18T16:59:00.942Z,410.73
2022-11-18T17:01:29.542Z,466.67
2022-11-18T17:03:56.346Z,544.07
2022-11-18T17:06:22.941Z,538.07
2022-11-18T17:08:49.459Z,523.70
2022-11-18T17:11:15.843Z,523.07
2022-11-18T17:13:42.248Z,408.73
2022-11-18T17:16:08.692Z,453.90
2022-11-18T17:18:35.087Z,504.13
2022-11-18T17:21:01.468Z,393.03
2022-11-18T17:23:27.879Z,396.70
2022-11-18T17:25:54.265Z,423.83
2022-11-18T17:28:20.666Z,435.87
2022-11-18T17:30:50.030Z,472.43
2022-11-18T17:33:18.448Z,544.60
2022-11-18T17:35:44.841Z,532.93
2022-11-18T17:38:11.245Z,442.03
2022-11-18T17:40:37.645Z,528.67
2022-11-18T17:43:04.052Z,520.07
2022-11-18T17:45:30.464Z,529.10
2022-11-18T17:47:56.861Z,529.07
2022-11-18T17:50:23.253Z,532.20
2022-11-18T17:52:49.661Z,504.37
2022-11-18T17:55:16.065Z,507.47
2022-11-18T17:57:42.470Z,547.43
2022-11-18T18:00:08.864Z,526.97
2022-11-18T18:02:35.249Z,455.47
2022-11-18T18:05:01.686Z,530.57
2022-11-18T18:07:28.329Z,546.27
2022-11-18T18:09:54.763Z,513.27
2022-11-18T18:12:21.180Z,487.37
2022-11-18T18:14:47.597Z,504.97
2022-11-18T18:17:13.982Z,532.73
2022-11-18T18:19:40.394Z,437.13
2022-11-18T18:22:07.004Z,527.37
2022-11-18T18:24:33.420Z,377.37
2022-11-18T18:26:59.922Z,494.93
2022-11-18T18:29:26.345Z,491.17
2022-11-18T18:31:52.753Z,541.33
2022-11-18T18:34:19.400Z,535.90
2022-11-18T18:36:45.941Z,517.10
2022-11-18T18:39:12.341Z,521.93
2022-11-18T18:41:38.745Z,538.37
2022-11-18T18:44:05.175Z,440.70
2022-11-18T18:46:31.574Z,529.73
2022-11-18T18:48:57.990Z,514.53
2022-11-18T18:51:24.409Z,535.23
2022-11-18T18:53:50.817Z,414.70
2022-11-18T18:56:17.405Z,530.43
2022-11-18T18:58:43.796Z,499.03
2022-11-18T19:01:10.247Z,463.17
2022-11-18T19:03:36.778Z,491.70
2022-11-18T19:06:41.506Z,502.40
2022-11-18T19:08:49.764Z,524.87
2022-11-18T19:11:16.428Z,526.70
2022-11-18T19:13:42.864Z,376.33
2022-11-18T19:16:09.445Z,401.60
2022-11-18T19:18:36.859Z,472.07
2022-11-18T19:21:03.449Z,518.47
2022-11-18T19:23:29.848Z,496.77
2022-11-18T19:25:56.322Z,506.30
2022-11-18T19:28:22.901Z,518.43
2022-11-18T19:30:49.315Z,470.53
2022-11-18T19:33:15.697Z,516.77
2022-11-18T19:35:42.105Z,406.30
2022-11-18T19:38:08.497Z,502.70
2022-11-18T19:40:34.903Z,438.47
2022-11-18T19:43:01.305Z,465.70
2022-11-18T19:45:27.723Z,486.17
2022-11-18T19:47:54.116Z,495.10
2022-11-18T19:50:20.528Z,501.20
2022-11-18T19:52:46.922Z,509.27
2022-11-18T19:55:13.345Z,501.43
2022-11-18T19:57:39.747Z,512.80
2022-11-18T20:00:06.140Z,518.57
2022-11-18T20:02:32.538Z,523.10
2022-11-18T20:04:58.928Z,530.50
2022-11-18T20:07:25.375Z,508.33
2022-11-18T20:09:51.801Z,449.70
2022-11-18T20:12:18.186Z,500.83
2022-11-18T20:14:44.603Z,508.50
2022-11-18T20:17:10.983Z,438.40
2022-11-18T20:19:37.379Z,494.60
2022-11-18T20:22:03.752Z,514.80
2022-11-18T20:24:30.157Z,504.90
2022-11-18T20:26:56.551Z,512.30
2022-11-18T20:29:22.943Z,520.07
2022-11-18T20:31:49.357Z,540.03
2022-11-18T20:34:15.735Z,511.43
2022-11-18T20:36:42.117Z,506.80
2022-11-18T20:39:08.513Z,529.07
2022-11-18T20:41:34.918Z,393.17
2022-11-18T20:44:01.341Z,507.20
2022-11-18T20:46:27.828Z,493.60
2022-11-18T20:48:54.232Z,516.00
2022-11-18T20:51:20.642Z,386.73
2022-11-18T20:53:47.121Z,487.77
2022-11-18T20:56:13.566Z,535.50
2022-11-18T20:58:39.991Z,520.77
2022-11-18T21:01:06.496Z,402.67
2022-11-18T21:03:32.898Z,453.00
2022-11-18T21:05:59.299Z,520.93
2022-11-18T21:08:25.673Z,548.07
2022-11-18T21:10:52.081Z,491.13
2022-11-18T21:13:18.497Z,513.83
2022-11-18T21:15:44.909Z,499.20
2022-11-18T21:18:11.295Z,531.13
2022-11-18T21:20:37.728Z,419.57
2022-11-18T21:23:04.140Z,391.33
2022-11-18T21:25:30.573Z,448.03
2022-11-18T21:27:57.045Z,457.00
2022-11-18T21:30:23.462Z,479.17
2022-11-18T21:32:50.053Z,436.23
2022-11-18T21:35:16.445Z,499.03
2022-11-18T21:37:42.852Z,509.93
2022-11-18T21:40:09.271Z,538.27
2022-11-18T21:42:35.651Z,491.10
2022-11-18T21:45:02.055Z,503.30
2022-11-18T21:47:28.436Z,514.77
2022-11-18T21:49:54.834Z,497.23
2022-11-18T21:52:21.251Z,530.07
2022-11-18T21:54:47.640Z,508.63
2022-11-18T21:57:14.031Z,541.83
2022-11-18T21:59:40.434Z,505.53
2022-11-18T22:02:06.823Z,533.23
2022-11-18T22:04:33.219Z,483.60
2022-11-18T22:06:59.693Z,358.40
2022-11-18T22:09:28.188Z,368.50
2022-11-18T22:11:56.606Z,364.87
2022-11-18T22:14:22.999Z,368.30
2022-11-18T22:16:49.385Z,389.57
2022-11-18T22:19:15.773Z,504.33
2022-11-18T22:21:42.161Z,477.83
2022-11-18T22:24:08.547Z,502.83
2022-11-18T22:26:34.933Z,499.70
2022-11-18T22:29:01.327Z,331.07
2022-11-18T22:31:27.718Z,362.53
2022-11-18T22:33:54.118Z,352.83
2022-11-18T22:36:20.576Z,351.00
2022-11-18T22:38:46.963Z,351.70
2022-11-18T22:41:13.355Z,366.13
2022-11-18T22:43:39.744Z,380.80
2022-11-18T22:46:06.125Z,484.70
2022-11-18T22:48:32.518Z,371.67
2022-11-18T22:50:58.913Z,507.27
2022-11-18T22:53:25.283Z,392.17
2022-11-18T22:55:51.672Z,466.60
2022-11-18T22:58:18.043Z,455.50
2022-11-18T23:00:44.433Z,381.93
2022-11-18T23:03:10.809Z,530.03
2022-11-18T23:05:37.211Z,335.47
2022-11-18T23:08:03.658Z,353.77
2022-11-18T23:10:30.086Z,360.13
2022-11-18T23:12:56.478Z,367.77
2022-11-18T23:15:22.892Z,364.97
2022-11-18T23:17:49.285Z,382.73
2022-11-18T23:20:15.667Z,420.53
2022-11-18T23:22:42.051Z,516.73
2022-11-18T23:25:08.463Z,445.13
2022-11-18T23:27:34.868Z,531.83
2022-11-18T23:30:01.273Z,393.07
2022-11-18T23:32:27.669Z,521.43
2022-11-18T23:34:54.178Z,542.83
2022-11-18T23:37:20.566Z,514.57
2022-11-18T23:39:46.956Z,534.20
2022-11-18T23:42:13.345Z,511.30
2022-11-18T23:44:39.749Z,365.40
2022-11-18T23:47:06.136Z,381.23
2022-11-18T23:49:32.546Z,508.67
2022-11-18T23:51:58.950Z,519.07
2022-11-18T23:54:25.340Z,548.83
2022-11-18T23:56:51.736Z,504.63
2022-11-18T23:59:18.335Z,439.93
